Time;durP1;ratioP1;P1;durP2;ratioP2;P2;SDS_P1;SDS_P2;PMS_P1;PMS_P2;Temp;Humidity;BMP_temperature;BMP_pressure;BME280_temperature;BME280_humidity;BME280_pressure;Samples;Min_cycle;Max_cycle;Signal;HPM_P1;HPM_P2
2023/11/02 00:01:11;;;;;;;0.10;0.10;;;9.60;99.90;;;;;;5062429;28;20052;-72
2023/11/02 00:03:40;;;;;;;0.10;0.10;;;9.50;99.90;;;;;;5060312;28;20397;-72
2023/11/02 00:06:15;;;;;;;1.23;0.40;;;9.50;99.90;;;;;;5063189;28;20469;-72
2023/11/02 00:08:43;;;;;;;0.45;0.35;;;9.60;99.90;;;;;;5063096;28;20049;-73
2023/11/02 00:11:48;;;;;;;0.10;0.10;;;9.70;99.90;;;;;;5057728;28;20397;-73
2023/11/02 00:14:14;;;;;;;0.10;0.10;;;9.70;99.90;;;;;;5060413;28;20040;-73
2023/11/02 00:16:40;;;;;;;0.10;0.10;;;9.70;99.90;;;;;;5061993;28;20151;-73
2023/11/02 00:19:11;;;;;;;0.10;0.10;;;9.70;99.90;;;;;;5066567;28;20051;-73
2023/11/02 00:21:37;;;;;;;0.93;0.43;;;9.70;99.90;;;;;;5067009;28;20425;-73
2023/11/02 00:24:03;;;;;;;0.10;0.10;;;9.60;99.90;;;;;;5059202;28;20393;-73
2023/11/02 00:26:29;;;;;;;0.10;0.10;;;9.50;99.90;;;;;;5061979;28;20487;-73
2023/11/02 00:28:56;;;;;;;0.10;0.10;;;9.60;99.90;;;;;;5065084;28;20028;-74
2023/11/02 00:31:22;;;;;;;0.20;0.20;;;9.60;99.90;;;;;;5066722;28;20044;-73
2023/11/02 00:33:48;;;;;;;0.30;0.30;;;9.50;99.90;;;;;;5063404;28;20036;-74
2023/11/02 00:36:15;;;;;;;0.10;0.10;;;9.40;99.90;;;;;;5040433;28;20049;-74
2023/11/02 00:38:43;;;;;;;0.15;0.15;;;9.50;99.90;;;;;;5065067;28;20047;-74
2023/11/02 00:41:09;;;;;;;0.38;0.38;;;9.40;99.90;;;;;;5048272;28;20051;-74
2023/11/02 00:43:36;;;;;;;0.47;0.40;;;9.40;99.90;;;;;;5061739;28;20032;-72
2023/11/02 00:46:02;;;;;;;0.10;0.10;;;9.30;99.90;;;;;;5062932;28;20082;-73
2023/11/02 00:48:31;;;;;;;0.10;0.10;;;9.50;99.90;;;;;;5051325;28;20029;-74
2023/11/02 00:51:24;;;;;;;0.13;0.13;;;9.60;99.90;;;;;;5045943;28;20037;-74
2023/11/02 00:53:55;;;;;;;0.03;0.03;;;9.50;99.90;;;;;;5063492;28;20037;-75
2023/11/02 00:56:24;;;;;;;0.20;0.20;;;9.50;99.90;;;;;;5060832;28;20865;-74
2023/11/02 00:58:54;;;;;;;0.10;0.10;;;9.50;99.90;;;;;;5062936;28;20029;-74
2023/11/02 01:01:23;;;;;;;0.68;0.55;;;9.40;99.90;;;;;;5057498;28;20257;-75
2023/11/02 01:03:54;;;;;;;0.10;0.10;;;9.30;99.90;;;;;;5062512;28;20031;-73
2023/11/02 01:06:25;;;;;;;;;;;9.30;99.90;;;;;;5048837;28;20056;-73
2023/11/02 01:09:04;;;;;;;0.10;0.10;;;9.20;99.90;;;;;;5060861;28;19920;-74
2023/11/02 01:11:36;;;;;;;0.43;0.43;;;9.10;99.90;;;;;;5051709;28;20051;-74
2023/11/02 01:14:24;;;;;;;0.10;0.10;;;9.10;99.90;;;;;;5062259;28;20036;-75
2023/11/02 01:16:51;;;;;;;0.10;0.10;;;9.20;99.90;;;;;;5041906;28;20064;-74
2023/11/02 01:19:52;;;;;;;3.03;1.00;;;9.20;99.90;;;;;;5045959;28;20040;-74
2023/11/02 01:22:32;;;;;;;0.85;0.45;;;9.10;99.90;;;;;;5041046;28;20036;-74
2023/11/02 01:25:07;;;;;;;0.13;0.13;;;9.10;99.90;;;;;;5065215;28;20043;-74
2023/11/02 01:27:33;;;;;;;0.10;0.10;;;9.10;99.90;;;;;;5061138;28;20048;-74
2023/11/02 01:30:06;;;;;;;0.10;0.10;;;9.10;99.90;;;;;;5060561;28;20459;-74
2023/11/02 01:32:33;;;;;;;0.10;0.10;;;9.10;99.90;;;;;;5058809;28;20059;-74
2023/11/02 01:34:59;;;;;;;0.10;0.10;;;9.30;99.90;;;;;;5069028;28;20508;-73
2023/11/02 01:37:29;;;;;;;0.10;0.10;;;9.30;99.90;;;;;;5064758;28;20052;-74
2023/11/02 01:40:21;;;;;;;0.10;0.10;;;9.20;99.90;;;;;;5060305;28;20040;-73
2023/11/02 01:42:48;;;;;;;0.20;0.20;;;9.30;99.90;;;;;;5042498;28;20390;-74
2023/11/02 01:45:25;;;;;;;0.10;0.10;;;9.50;99.90;;;;;;5061936;28;20496;-74
2023/11/02 01:48:23;;;;;;;0.20;0.20;;;9.50;99.90;;;;;;5058217;28;20037;-74
2023/11/02 01:50:57;;;;;;;0.10;0.10;;;9.60;99.90;;;;;;5063460;28;20033;-74
2023/11/02 01:53:36;;;;;;;3.03;0.77;;;9.60;99.90;;;;;;5051197;28;20041;-74
2023/11/02 01:56:07;;;;;;;0.10;0.10;;;9.70;99.90;;;;;;5050556;28;20037;-74
2023/11/02 01:59:03;;;;;;;0.10;0.10;;;9.80;99.90;;;;;;5048992;28;20049;-74
2023/11/02 02:01:37;;;;;;;1.27;0.95;;;10.00;99.90;;;;;;5060348;28;20040;-74
2023/11/02 02:04:19;;;;;;;0.52;0.52;;;10.10;99.90;;;;;;5060716;28;20032;-74
2023/11/02 02:07:07;;;;;;;0.25;0.20;;;10.00;99.90;;;;;;5055610;28;20056;-74
2023/11/02 02:09:48;;;;;;;0.10;0.10;;;10.10;99.90;;;;;;5061938;28;20044;-74
2023/11/02 02:12:38;;;;;;;0.40;0.40;;;10.20;99.90;;;;;;5039511;28;20040;-74
2023/11/02 02:15:19;;;;;;;0.27;0.27;;;10.30;99.90;;;;;;5047756;28;20052;-75
2023/11/02 02:18:00;;;;;;;0.30;0.30;;;10.30;99.90;;;;;;5046340;28;20298;-73
2023/11/02 02:20:34;;;;;;;0.10;0.10;;;10.30;99.90;;;;;;5061790;28;20099;-74
2023/11/02 02:23:15;;;;;;;0.10;0.10;;;10.30;99.90;;;;;;5057226;28;20382;-74
2023/11/02 02:26:00;;;;;;;0.10;0.10;;;10.30;99.90;;;;;;5031406;28;20777;-72
2023/11/02 02:28:56;;;;;;;0.10;0.10;;;10.40;99.90;;;;;;5028262;28;20041;-74
2023/11/02 02:31:32;;;;;;;0.10;0.10;;;10.50;99.90;;;;;;5042511;28;20045;-72
2023/11/02 02:34:21;;;;;;;0.10;0.10;;;10.50;99.90;;;;;;5062142;28;20041;-72
2023/11/02 02:37:14;;;;;;;0.17;0.17;;;10.50;99.90;;;;;;5061590;28;20048;-72
2023/11/02 02:39:44;;;;;;;0.10;0.10;;;10.50;95.90;;;;;;5057521;28;20534;-72
2023/11/02 02:42:15;;;;;;;0.55;0.47;;;10.50;90.30;;;;;;5066530;28;20033;-73
2023/11/02 02:44:44;;;;;;;0.10;0.10;;;10.60;57.10;;;;;;5047250;28;20045;-72
2023/11/02 02:47:13;;;;;;;0.00;0.00;;;10.70;46.00;;;;;;5067565;28;20028;-73
2023/11/02 02:49:43;;;;;;;0.08;0.08;;;10.70;34.70;;;;;;5065409;28;20040;-72
2023/11/02 02:52:13;;;;;;;0.10;0.10;;;10.80;14.50;;;;;;5047907;28;20041;-73
2023/11/02 02:54:46;;;;;;;0.10;0.10;;;10.90;1.00;;;;;;5064620;28;20025;-73
2023/11/02 02:57:15;;;;;;;0.10;0.10;;;10.90;1.00;;;;;;5060139;28;20317;-75
2023/11/02 02:59:48;;;;;;;0.10;0.10;;;11.00;1.00;;;;;;5067546;28;20033;-75
2023/11/02 03:02:16;;;;;;;1.17;0.45;;;11.00;1.00;;;;;;5049424;28;20036;-74
2023/11/02 03:04:45;;;;;;;0.10;0.10;;;11.10;1.00;;;;;;5064146;28;20028;-74
2023/11/02 03:07:14;;;;;;;0.10;0.10;;;11.00;1.00;;;;;;5060710;28;20049;-74
2023/11/02 03:09:43;;;;;;;0.10;0.10;;;11.10;1.00;;;;;;5068960;28;20048;-75
2023/11/02 03:12:11;;;;;;;0.10;0.10;;;11.00;1.00;;;;;;5049911;28;20037;-75
2023/11/02 03:14:40;;;;;;;0.10;0.10;;;11.00;1.00;;;;;;5062885;28;20028;-74
2023/11/02 03:17:21;;;;;;;0.10;0.10;;;11.00;1.00;;;;;;5064160;28;20039;-75
2023/11/02 03:19:49;;;;;;;0.10;0.10;;;10.90;1.00;;;;;;5065338;28;20032;-74
2023/11/02 03:22:18;;;;;;;0.10;0.10;;;10.90;1.00;;;;;;5068425;28;20040;-74
2023/11/02 03:25:23;;;;;;;0.10;0.10;;;10.90;1.00;;;;;;5065394;28;20476;-75
2023/11/02 03:28:11;;;;;;;0.20;0.20;;;10.90;1.00;;;;;;5046931;28;20036;-74
2023/11/02 03:30:56;;;;;;;0.10;0.10;;;11.00;1.00;;;;;;5060446;28;20456;-74
2023/11/02 03:33:43;;;;;;;0.20;0.20;;;11.00;1.00;;;;;;5064694;28;20029;-75
2023/11/02 03:36:13;;;;;;;0.10;0.10;;;11.00;1.00;;;;;;5044304;28;20405;-73
2023/11/02 03:38:48;;;;;;;0.10;0.10;;;11.00;1.00;;;;;;5060288;28;20029;-74
2023/11/02 03:41:50;;;;;;;0.20;0.20;;;11.10;1.00;;;;;;5043847;28;20399;-73
2023/11/02 03:44:21;;;;;;;0.13;0.13;;;11.10;1.00;;;;;;5045525;28;20041;-73
2023/11/02 03:47:19;;;;;;;0.10;0.10;;;11.20;1.00;;;;;;5066976;28;20104;-73
2023/11/02 03:50:24;;;;;;;4.13;0.47;;;11.20;1.00;;;;;;5050521;28;20473;-72
2023/11/02 03:53:10;;;;;;;1.10;0.43;;;11.10;1.00;;;;;;5038497;28;20048;-73
2023/11/02 03:55:59;;;;;;;0.15;0.15;;;11.00;1.00;;;;;;5061674;28;20032;-73
2023/11/02 03:58:42;;;;;;;0.20;0.20;;;11.00;1.00;;;;;;5059503;28;20044;-74
2023/11/02 04:01:19;;;;;;;0.20;0.20;;;11.00;1.00;;;;;;5066298;28;20035;-74
2023/11/02 04:03:57;;;;;;;0.10;0.10;;;11.00;1.00;;;;;;5065981;28;20473;-73
2023/11/02 04:06:49;;;;;;;0.10;0.10;;;11.00;1.00;;;;;;5059510;28;20037;-73
2023/11/02 04:09:19;;;;;;;0.10;0.10;;;11.00;1.00;;;;;;5037644;28;20056;-74
2023/11/02 04:11:55;;;;;;;0.13;0.13;;;11.10;1.00;;;;;;5068145;28;20055;-74
2023/11/02 04:14:24;;;;;;;0.10;0.10;;;11.10;1.00;;;;;;5069174;28;20031;-73
2023/11/02 04:16:51;;;;;;;0.28;0.28;;;11.20;1.00;;;;;;5068905;28;20431;-73
2023/11/02 04:19:17;;;;;;;0.10;0.10;;;11.20;1.00;;;;;;5058924;28;20492;-73
2023/11/02 04:21:43;;;;;;;0.77;0.63;;;11.20;1.00;;;;;;5061044;28;20028;-73
2023/11/02 04:24:09;;;;;;;0.55;0.55;;;11.30;1.00;;;;;;5051993;28;20028;-73
2023/11/02 04:26:36;;;;;;;0.10;0.10;;;11.30;1.00;;;;;;5047729;28;20039;-73
2023/11/02 04:29:02;;;;;;;0.10;0.10;;;11.40;1.00;;;;;;5062001;28;20033;-73
2023/11/02 04:31:28;;;;;;;0.10;0.10;;;11.50;1.00;;;;;;5069002;28;20370;-73
2023/11/02 04:33:54;;;;;;;0.10;0.10;;;11.50;1.00;;;;;;5072418;28;20033;-74
2023/11/02 04:36:20;;;;;;;0.20;0.20;;;11.50;1.00;;;;;;5064560;28;20056;-73
2023/11/02 04:38:52;;;;;;;0.10;0.10;;;11.60;1.00;;;;;;5063061;28;20393;-73
2023/11/02 04:41:20;;;;;;;0.10;0.10;;;11.60;1.00;;;;;;5061809;28;20045;-73
2023/11/02 04:43:46;;;;;;;0.10;0.10;;;11.70;1.00;;;;;;5048688;28;20470;-73
2023/11/02 04:46:13;;;;;;;0.10;0.10;;;11.60;1.00;;;;;;5062146;28;20062;-73
2023/11/02 04:48:40;;;;;;;0.10;0.10;;;11.70;1.00;;;;;;5061829;28;20040;-73
2023/11/02 04:51:06;;;;;;;0.10;0.10;;;11.70;99.90;;;;;;5065952;28;20051;-73
2023/11/02 04:53:32;;;;;;;0.10;0.10;;;11.80;99.90;;;;;;5059910;28;20029;-73
2023/11/02 04:55:59;;;;;;;0.20;0.20;;;11.80;99.90;;;;;;5052544;28;20055;-73
2023/11/02 04:58:25;;;;;;;0.10;0.10;;;11.80;99.90;;;;;;5058836;28;20032;-73
2023/11/02 05:00:52;;;;;;;0.10;0.10;;;11.70;1.00;;;;;;5062524;28;20035;-74
2023/11/02 05:03:18;;;;;;;0.25;0.25;;;11.70;1.00;;;;;;5060331;28;20040;-74
2023/11/02 05:05:45;;;;;;;0.10;0.10;;;11.50;1.00;;;;;;5058789;28;20508;-73
2023/11/02 05:08:11;;;;;;;0.10;0.10;;;11.30;1.00;;;;;;5066457;28;20052;-77
2023/11/02 05:10:37;;;;;;;0.45;0.45;;;11.00;52.20;;;;;;5047911;28;20048;-74
2023/11/02 05:13:04;;;;;;;0.20;0.20;;;10.70;99.90;;;;;;5060450;28;20033;-73
2023/11/02 05:15:30;;;;;;;0.10;0.10;;;10.50;99.90;;;;;;5059695;28;20028;-73
2023/11/02 05:17:56;;;;;;;0.10;0.10;;;10.20;99.90;;;;;;5060879;28;20044;-75
2023/11/02 05:20:23;;;;;;;0.35;0.25;;;10.10;99.90;;;;;;5062476;28;20037;-74
2023/11/02 05:22:49;;;;;;;0.10;0.10;;;9.90;99.90;;;;;;5062013;28;20040;-74
2023/11/02 05:25:16;;;;;;;0.10;0.10;;;9.80;99.90;;;;;;5058097;28;20114;-74
2023/11/02 05:27:42;;;;;;;0.10;0.10;;;9.70;99.90;;;;;;5060568;28;20033;-73
2023/11/02 05:30:08;;;;;;;0.10;0.10;;;9.70;99.90;;;;;;5056301;28;20033;-74
2023/11/02 05:32:35;;;;;;;0.10;0.10;;;9.70;99.90;;;;;;5064751;28;20492;-74
2023/11/02 05:35:02;;;;;;;0.10;0.10;;;9.60;1.00;;;;;;5061405;28;20032;-76
2023/11/02 05:37:28;;;;;;;0.25;0.17;;;9.50;10.20;;;;;;5059991;28;20048;-75
2023/11/02 05:39:54;;;;;;;0.75;0.68;;;9.50;1.00;;;;;;5059229;28;20041;-75
2023/11/02 05:42:20;;;;;;;0.10;0.10;;;9.40;1.00;;;;;;5049427;28;20037;-75
2023/11/02 05:44:46;;;;;;;0.10;0.10;;;9.40;6.40;;;;;;5066258;28;20409;-74
2023/11/02 05:47:13;;;;;;;0.25;0.25;;;9.40;33.20;;;;;;5052976;28;20055;-73
2023/11/02 05:49:39;;;;;;;0.10;0.10;;;9.30;38.10;;;;;;5058410;28;20031;-75
2023/11/02 05:52:05;;;;;;;0.73;0.65;;;9.40;22.70;;;;;;5062794;28;20375;-75
2023/11/02 05:54:31;;;;;;;1.58;0.93;;;9.50;4.20;;;;;;5060933;28;20519;-74
2023/11/02 05:56:58;;;;;;;1.85;1.48;;;9.50;99.90;;;;;;5059902;28;20473;-75
2023/11/02 05:59:24;;;;;;;0.10;0.10;;;9.40;99.90;;;;;;5044086;28;20072;-75
2023/11/02 06:01:50;;;;;;;0.13;0.13;;;9.30;99.90;;;;;;5062821;28;20033;-75
2023/11/02 06:04:16;;;;;;;0.20;0.20;;;9.20;99.90;;;;;;5060384;28;20045;-75
2023/11/02 06:06:42;;;;;;;0.10;0.10;;;9.20;99.90;;;;;;5063833;28;20041;-74
2023/11/02 06:09:08;;;;;;;0.10;0.10;;;9.10;99.90;;;;;;5059609;28;20036;-74
2023/11/02 06:11:35;;;;;;;0.43;0.43;;;9.10;99.90;;;;;;5062175;28;20040;-74
2023/11/02 06:14:02;;;;;;;0.10;0.10;;;9.10;99.90;;;;;;5067756;28;20032;-75
2023/11/02 06:16:28;;;;;;;0.10;0.10;;;9.10;99.90;;;;;;5073483;28;20051;-74
2023/11/02 06:18:55;;;;;;;0.10;0.10;;;9.10;99.90;;;;;;5058033;28;20047;-75
2023/11/02 06:21:21;;;;;;;0.10;0.10;;;9.20;99.90;;;;;;5056727;28;20033;-74
2023/11/02 06:23:47;;;;;;;0.10;0.10;;;9.20;99.90;;;;;;5065709;28;20020;-74
2023/11/02 06:26:13;;;;;;;0.10;0.10;;;9.10;99.90;;;;;;5065876;28;20040;-74
2023/11/02 06:28:40;;;;;;;0.10;0.10;;;9.10;99.90;;;;;;5055025;28;20036;-74
2023/11/02 06:31:06;;;;;;;0.10;0.10;;;9.10;99.90;;;;;;5060035;28;20478;-74
2023/11/02 06:33:34;;;;;;;0.10;0.10;;;9.10;99.90;;;;;;5059512;28;20116;-74
2023/11/02 06:36:00;;;;;;;0.40;0.38;;;9.10;99.90;;;;;;5062150;28;20051;-74
2023/11/02 06:38:29;;;;;;;0.20;0.20;;;9.10;99.90;;;;;;5062936;28;20036;-72
2023/11/02 06:40:55;;;;;;;0.20;0.20;;;9.10;99.90;;;;;;5058828;28;20044;-73
2023/11/02 06:43:21;;;;;;;0.13;0.13;;;9.10;99.90;;;;;;5059327;28;20047;-74
2023/11/02 06:45:48;;;;;;;0.40;0.30;;;9.10;99.90;;;;;;5061119;28;20039;-74
2023/11/02 06:48:14;;;;;;;0.95;0.88;;;9.10;99.90;;;;;;5044601;28;20033;-73
2023/11/02 06:50:40;;;;;;;0.47;0.47;;;9.10;99.90;;;;;;5059514;28;20032;-74
2023/11/02 06:53:06;;;;;;;0.10;0.10;;;9.10;99.90;;;;;;5059654;28;20124;-75
2023/11/02 06:55:34;;;;;;;12.57;0.45;;;9.10;99.90;;;;;;5049032;28;20462;-74
2023/11/02 06:58:00;;;;;;;0.47;0.32;;;9.20;99.90;;;;;;5060357;28;20040;-74
2023/11/02 07:00:26;;;;;;;0.10;0.10;;;9.10;99.90;;;;;;5056623;28;20039;-74
2023/11/02 07:02:52;;;;;;;0.10;0.10;;;9.20;99.90;;;;;;5059129;28;20100;-73
2023/11/02 07:05:19;;;;;;;0.82;0.65;;;9.10;99.90;;;;;;5062486;28;20024;-74
2023/11/02 07:07:49;;;;;;;0.13;0.13;;;9.20;99.90;;;;;;5057439;28;20036;-74
2023/11/02 07:10:16;;;;;;;0.10;0.10;;;9.20;99.90;;;;;;5069216;28;20024;-73
2023/11/02 07:12:42;;;;;;;0.10;0.10;;;9.20;99.90;;;;;;5074211;28;20039;-74
2023/11/02 07:15:09;;;;;;;0.17;0.17;;;9.20;99.90;;;;;;5062382;28;20040;-76
2023/11/02 07:17:35;;;;;;;0.70;0.43;;;9.20;99.90;;;;;;5066075;28;20038;-75
2023/11/02 07:20:01;;;;;;;2.08;0.63;;;9.20;99.90;;;;;;5057445;28;20047;-74
2023/11/02 07:22:27;;;;;;;0.43;0.43;;;9.20;99.90;;;;;;5056558;28;20049;-74
2023/11/02 07:24:53;;;;;;;0.73;0.20;;;9.20;99.90;;;;;;5062722;28;20026;-73
2023/11/02 07:27:19;;;;;;;0.20;0.20;;;9.20;99.90;;;;;;5065463;28;20028;-74
2023/11/02 07:29:45;;;;;;;0.10;0.10;;;9.10;99.90;;;;;;5065091;28;20043;-74
2023/11/02 07:32:12;;;;;;;0.10;0.10;;;9.10;99.90;;;;;;5067164;28;20033;-71
2023/11/02 07:34:38;;;;;;;0.20;0.20;;;9.10;99.90;;;;;;5063422;28;20247;-73
2023/11/02 07:37:04;;;;;;;0.10;0.10;;;9.20;99.90;;;;;;5065147;28;20051;-73
2023/11/02 07:39:33;;;;;;;0.22;0.17;;;9.20;99.90;;;;;;5063635;28;20044;-74
2023/11/02 07:42:00;;;;;;;0.20;0.20;;;9.20;99.90;;;;;;5067159;28;20040;-73
2023/11/02 07:44:26;;;;;;;0.10;0.10;;;9.20;99.90;;;;;;5064625;28;20048;-75
2023/11/02 07:46:52;;;;;;;0.10;0.10;;;9.20;99.90;;;;;;5066097;28;20040;-73
2023/11/02 07:49:18;;;;;;;0.20;0.20;;;9.20;99.90;;;;;;5060555;28;20481;-74
2023/11/02 07:51:45;;;;;;;0.10;0.10;;;9.30;99.90;;;;;;5065684;28;20052;-74
2023/11/02 07:54:11;;;;;;;0.25;0.25;;;9.30;99.90;;;;;;5064676;28;20041;-74
2023/11/02 07:56:37;;;;;;;0.10;0.10;;;9.30;99.90;;;;;;5064051;28;20051;-73
2023/11/02 07:59:03;;;;;;;0.10;0.10;;;9.40;99.90;;;;;;5058631;28;20409;-74
2023/11/02 08:01:30;;;;;;;0.25;0.25;;;9.40;99.90;;;;;;5063181;28;20033;-73
2023/11/02 08:03:56;;;;;;;0.10;0.10;;;9.50;99.90;;;;;;5061757;28;20028;-74
2023/11/02 08:06:23;;;;;;;0.10;0.10;;;9.50;99.90;;;;;;5061243;28;20032;-75
2023/11/02 08:08:50;;;;;;;0.10;0.10;;;9.60;99.90;;;;;;5061611;28;20076;-74
2023/11/02 08:11:17;;;;;;;0.10;0.10;;;9.70;99.90;;;;;;5066977;28;20040;-77
2023/11/02 08:13:43;;;;;;;6.80;1.45;;;9.60;99.90;;;;;;5063940;28;20143;-74
2023/11/02 08:16:09;;;;;;;0.10;0.10;;;9.70;99.90;;;;;;5060224;28;20033;-75
2023/11/02 08:18:36;;;;;;;0.25;0.17;;;9.70;99.90;;;;;;5059195;28;20041;-73
2023/11/02 08:21:08;;;;;;;0.17;0.17;;;9.70;99.90;;;;;;5063328;28;20385;-73
2023/11/02 08:23:35;;;;;;;0.15;0.15;;;9.80;99.90;;;;;;5069535;28;20028;-73
2023/11/02 08:26:01;;;;;;;0.20;0.20;;;9.90;99.90;;;;;;5064569;28;20029;-72
2023/11/02 08:28:27;;;;;;;0.30;0.30;;;10.00;99.90;;;;;;5059384;28;20458;-72
2023/11/02 08:30:54;;;;;;;0.75;0.30;;;10.00;99.90;;;;;;5051818;28;20049;-73
2023/11/02 08:33:20;;;;;;;0.20;0.20;;;10.10;99.90;;;;;;5050679;28;20052;-72
2023/11/02 08:35:46;;;;;;;0.38;0.25;;;10.10;99.90;;;;;;5067255;28;20032;-75
2023/11/02 08:38:12;;;;;;;0.10;0.10;;;10.20;99.90;;;;;;5058671;28;20040;-74
2023/11/02 08:40:38;;;;;;;0.10;0.10;;;10.20;99.90;;;;;;5053531;28;20039;-75
2023/11/02 08:43:05;;;;;;;0.15;0.15;;;10.20;99.90;;;;;;5063188;28;20033;-73
2023/11/02 08:45:31;;;;;;;0.30;0.30;;;10.20;99.90;;;;;;5064260;28;20055;-79
2023/11/02 08:47:57;;;;;;;0.10;0.10;;;10.30;99.90;;;;;;5065227;28;20513;-77
2023/11/02 08:50:25;;;;;;;0.10;0.10;;;10.30;99.90;;;;;;5063271;28;20036;-78
2023/11/02 08:52:51;;;;;;;0.20;0.20;;;10.40;99.90;;;;;;5063996;28;20037;-73
2023/11/02 08:55:17;;;;;;;0.45;0.45;;;10.30;99.90;;;;;;5040491;28;20045;-75
2023/11/02 08:57:43;;;;;;;0.10;0.10;;;10.40;99.90;;;;;;5062156;28;20217;-76
2023/11/02 09:00:10;;;;;;;0.17;0.17;;;10.40;99.90;;;;;;5064301;28;20080;-74
2023/11/02 09:02:36;;;;;;;0.75;0.73;;;10.40;99.90;;;;;;5044630;28;20036;-75
2023/11/02 09:05:03;;;;;;;0.10;0.10;;;10.40;99.90;;;;;;5048388;28;20037;-74
2023/11/02 09:07:31;;;;;;;0.30;0.30;;;10.60;99.90;;;;;;5054596;28;20055;-75
2023/11/02 09:09:57;;;;;;;0.10;0.10;;;10.60;99.90;;;;;;5055137;28;20037;-79
2023/11/02 09:12:23;;;;;;;0.90;0.68;;;10.60;99.90;;;;;;5058514;28;20039;-80
2023/11/02 09:14:50;;;;;;;0.10;0.10;;;10.60;99.90;;;;;;5063377;28;20560;-77
2023/11/02 09:17:16;;;;;;;0.10;0.10;;;10.50;99.90;;;;;;5065363;28;20037;-77
2023/11/02 09:19:43;;;;;;;0.10;0.10;;;10.40;99.90;;;;;;5057352;28;20037;-76
2023/11/02 09:22:10;;;;;;;0.10;0.10;;;10.40;99.90;;;;;;5058785;28;20033;-80
2023/11/02 09:24:38;;;;;;;0.10;0.10;;;10.40;99.90;;;;;;5060320;28;20040;-78
2023/11/02 09:27:04;;;;;;;0.10;0.10;;;10.50;99.90;;;;;;5064473;28;20040;-79
2023/11/02 09:29:30;;;;;;;1.55;0.55;;;10.50;99.90;;;;;;5062805;28;20036;-77
2023/11/02 09:31:56;;;;;;;0.10;0.10;;;10.60;99.90;;;;;;5060043;28;20032;-76
2023/11/02 09:34:22;;;;;;;0.10;0.10;;;10.60;99.90;;;;;;5048503;28;20032;-77
2023/11/02 09:36:49;;;;;;;0.10;0.10;;;10.70;99.90;;;;;;5060719;28;20044;-78
2023/11/02 09:39:15;;;;;;;0.25;0.25;;;10.80;99.90;;;;;;5060086;28;20516;-79
2023/11/02 09:41:41;;;;;;;0.10;0.10;;;10.80;99.90;;;;;;5061423;28;20036;-77
2023/11/02 09:44:08;;;;;;;0.20;0.20;;;11.00;99.90;;;;;;5060038;28;20033;-77
2023/11/02 09:46:35;;;;;;;0.17;0.17;;;11.00;99.90;;;;;;5043047;28;20053;-76
2023/11/02 09:49:02;;;;;;;0.10;0.10;;;11.00;99.90;;;;;;5067757;28;20037;-77
2023/11/02 09:51:29;;;;;;;0.10;0.10;;;11.00;99.90;;;;;;5075933;28;20039;-76
2023/11/02 09:53:56;;;;;;;0.10;0.10;;;11.10;99.90;;;;;;5046693;28;20032;-76
2023/11/02 09:56:24;;;;;;;0.95;0.40;;;11.10;99.90;;;;;;5062437;28;20041;-76
2023/11/02 09:58:51;;;;;;;2.38;0.45;;;11.10;99.90;;;;;;5042730;28;20067;-76
2023/11/02 10:01:19;;;;;;;0.10;0.10;;;11.10;99.90;;;;;;5061789;28;20097;-76
2023/11/02 10:03:46;;;;;;;0.10;0.10;;;11.10;99.90;;;;;;5061966;28;20048;-76
2023/11/02 10:06:12;;;;;;;0.30;0.30;;;11.20;99.90;;;;;;5060104;28;20033;-75
2023/11/02 10:08:38;;;;;;;0.10;0.10;;;11.30;99.90;;;;;;5046979;28;20074;-75
2023/11/02 10:11:14;;;;;;;0.55;0.55;;;11.40;99.90;;;;;;5049688;28;20494;-76
2023/11/02 10:13:44;;;;;;;0.10;0.10;;;11.40;99.90;;;;;;5060492;28;20489;-75
2023/11/02 10:16:10;;;;;;;0.23;0.23;;;11.40;99.90;;;;;;5060613;28;20059;-76
2023/11/02 10:18:36;;;;;;;0.13;0.13;;;11.40;99.90;;;;;;5045632;28;20278;-76
2023/11/02 10:21:08;;;;;;;0.10;0.10;;;11.50;99.90;;;;;;5064523;28;20493;-75
2023/11/02 10:23:53;;;;;;;0.10;0.10;;;11.60;59.50;;;;;;5049127;28;20037;-76
2023/11/02 10:26:20;;;;;;;0.08;0.08;;;11.70;49.10;;;;;;5057537;28;20025;-75
2023/11/02 10:28:47;;;;;;;0.13;0.13;;;11.70;40.00;;;;;;5058678;28;20024;-75
2023/11/02 10:31:18;;;;;;;0.20;0.20;;;11.80;38.60;;;;;;5075741;28;20040;-75
2023/11/02 10:33:48;;;;;;;0.10;0.10;;;11.90;40.00;;;;;;5066625;28;20422;-74
2023/11/02 10:36:16;;;;;;;0.38;0.38;;;11.90;29.40;;;;;;5048597;28;20501;-74
2023/11/02 10:38:44;;;;;;;0.30;0.30;;;11.90;26.50;;;;;;5059778;28;20041;-75
2023/11/02 10:41:18;;;;;;;0.43;0.43;;;11.80;34.80;;;;;;5043838;28;20044;-74
2023/11/02 10:43:48;;;;;;;0.10;0.10;;;11.80;40.90;;;;;;5061089;28;20393;-74
2023/11/02 10:46:17;;;;;;;0.10;0.10;;;11.70;44.70;;;;;;5062523;28;20040;-74
2023/11/02 10:48:43;;;;;;;0.50;0.45;;;11.70;42.80;;;;;;5047663;28;20353;-74
2023/11/02 10:51:20;;;;;;;0.40;0.40;;;11.70;48.40;;;;;;5048926;28;20040;-74
2023/11/02 10:54:30;;;;;;;0.00;0.00;;;11.70;49.60;;;;;;5055056;28;20037;-75
2023/11/02 10:57:22;;;;;;;0.10;0.10;;;11.60;58.20;;;;;;4950417;28;20051;-73
2023/11/02 10:59:48;;;;;;;0.10;0.10;;;11.60;72.30;;;;;;5054700;28;20045;-74
2023/11/02 11:02:17;;;;;;;0.05;0.03;;;11.60;78.00;;;;;;5037530;28;20036;-75
2023/11/02 11:04:45;;;;;;;0.10;0.10;;;11.50;78.60;;;;;;5053749;28;20033;-74
2023/11/02 11:07:12;;;;;;;0.17;0.17;;;11.60;91.60;;;;;;5048488;28;20044;-74
2023/11/02 11:09:42;;;;;;;0.10;0.10;;;11.60;85.30;;;;;;5061131;28;20492;-75
2023/11/02 11:12:09;;;;;;;0.10;0.10;;;11.70;87.60;;;;;;5064761;28;20032;-75
2023/11/02 11:14:37;;;;;;;0.20;0.20;;;11.60;90.70;;;;;;5065746;28;20481;-73
2023/11/02 11:17:07;;;;;;;0.38;0.38;;;11.60;82.80;;;;;;5059172;28;20040;-75
2023/11/02 11:19:34;;;;;;;0.10;0.10;;;11.60;91.30;;;;;;5059716;28;20037;-76
2023/11/02 11:22:13;;;;;;;7.00;0.63;;;11.60;91.00;;;;;;5061845;28;20033;-76
2023/11/02 11:24:39;;;;;;;0.10;0.10;;;11.60;96.20;;;;;;5066668;28;20040;-76
2023/11/02 11:27:07;;;;;;;0.55;0.55;;;11.50;95.60;;;;;;5069081;28;20039;-76
2023/11/02 11:29:43;;;;;;;0.10;0.10;;;11.50;99.40;;;;;;5062653;28;20062;-75
2023/11/02 11:32:36;;;;;;;0.63;0.45;;;11.50;98.10;;;;;;5059982;28;20036;-75
2023/11/02 11:35:08;;;;;;;0.65;0.65;;;11.60;99.40;;;;;;5059904;28;20043;-76
2023/11/02 11:37:39;;;;;;;0.38;0.20;;;11.70;97.80;;;;;;5069706;28;20041;-75
2023/11/02 11:40:29;;;;;;;0.22;0.22;;;11.80;93.80;;;;;;5049205;28;20052;-76
2023/11/02 11:43:00;;;;;;;0.43;0.25;;;11.90;91.60;;;;;;5065115;28;20033;-75
2023/11/02 11:45:31;;;;;;;0.10;0.10;;;11.90;67.00;;;;;;5062833;28;20433;-75
2023/11/02 11:47:59;;;;;;;0.35;0.35;;;11.90;61.30;;;;;;5050740;28;20044;-75
2023/11/02 11:50:41;;;;;;;0.32;0.32;;;12.00;71.80;;;;;;5062701;28;20041;-75
2023/11/02 11:53:23;;;;;;;0.10;0.10;;;12.00;66.50;;;;;;5067144;28;20025;-75
2023/11/02 11:55:51;;;;;;;0.10;0.10;;;12.10;67.10;;;;;;5062021;28;20033;-76
2023/11/02 11:58:38;;;;;;;0.40;0.40;;;12.10;57.80;;;;;;5065886;28;20044;-82
2023/11/02 12:01:04;;;;;;;0.20;0.20;;;12.20;29.00;;;;;;5052249;28;20031;-80
2023/11/02 12:03:34;;;;;;;0.10;0.10;;;12.20;34.10;;;;;;5057995;28;20025;-80
2023/11/02 12:06:04;;;;;;;0.10;0.10;;;12.30;34.30;;;;;;5046639;28;20036;-80
2023/11/02 12:08:41;;;;;;;0.00;0.00;;;12.30;27.50;;;;;;5046180;28;20049;-79
2023/11/02 12:11:09;;;;;;;0.20;0.20;;;12.40;6.10;;;;;;5041986;28;20037;-84
2023/11/02 12:13:40;;;;;;;0.15;0.15;;;12.40;1.00;;;;;;5060521;28;20044;-80
2023/11/02 12:16:06;;;;;;;0.35;0.35;;;12.50;1.00;;;;;;5047308;28;20055;-79
2023/11/02 12:18:34;;;;;;;0.00;0.00;;;12.50;1.00;;;;;;5044894;28;20398;-78
2023/11/02 12:21:04;;;;;;;0.10;0.10;;;12.60;1.00;;;;;;5061966;28;20029;-75
2023/11/02 12:23:38;;;;;;;0.10;0.10;;;12.60;1.00;;;;;;5066253;28;20032;-80
2023/11/02 12:26:06;;;;;;;0.10;0.10;;;12.60;1.00;;;;;;5066697;28;20036;-75
2023/11/02 12:28:58;;;;;;;0.10;0.10;;;12.60;1.00;;;;;;5074998;28;20056;-78
2023/11/02 12:31:32;;;;;;;0.20;0.20;;;12.60;1.00;;;;;;5065663;28;20053;-78
2023/11/02 12:34:02;;;;;;;0.10;0.10;;;12.60;1.00;;;;;;5063872;28;20040;-80
2023/11/02 12:36:28;;;;;;;0.20;0.20;;;12.50;1.00;;;;;;5058355;28;20029;-79
2023/11/02 12:38:57;;;;;;;0.25;0.15;;;12.50;1.00;;;;;;5061825;28;20051;-78
2023/11/02 12:41:27;;;;;;;0.10;0.10;;;12.40;1.00;;;;;;5061777;28;20041;-79
2023/11/02 12:44:03;;;;;;;0.10;0.10;;;12.40;1.00;;;;;;5065310;28;20480;-80
2023/11/02 12:46:32;;;;;;;0.08;0.08;;;12.40;1.00;;;;;;5063406;28;20040;-77
2023/11/02 12:49:18;;;;;;;0.10;0.10;;;12.40;1.00;;;;;;5064560;28;20048;-79
2023/11/02 12:52:07;;;;;;;0.10;0.10;;;12.40;1.00;;;;;;5056989;28;20474;-79
2023/11/02 12:54:36;;;;;;;0.30;0.22;;;12.40;1.00;;;;;;5057372;28;20036;-78
2023/11/02 12:57:09;;;;;;;0.10;0.10;;;12.40;1.00;;;;;;5073432;28;20068;-79
2023/11/02 12:59:37;;;;;;;0.75;0.57;;;12.40;1.00;;;;;;5064220;28;20481;-78
2023/11/02 13:02:05;;;;;;;0.10;0.10;;;12.40;1.00;;;;;;5034712;28;20032;-80
2023/11/02 13:04:53;;;;;;;0.00;0.00;;;12.50;1.00;;;;;;5067489;28;20039;-78
2023/11/02 13:07:27;;;;;;;0.10;0.10;;;12.50;1.00;;;;;;5058574;28;20509;-81
2023/11/02 13:10:16;;;;;;;0.57;0.57;;;12.50;1.00;;;;;;5061791;28;20051;-83
2023/11/02 13:12:44;;;;;;;0.75;0.50;;;12.50;1.00;;;;;;5064752;28;20044;-79